createdAt,value
2023-05-01T00:01:47.886Z,94196.19
2023-05-01T00:04:14.637Z,94185.50
2023-05-01T00:06:41.527Z,94182.69
2023-05-01T00:09:08.394Z,94179.88
2023-05-01T00:11:37.528Z,94178.44
2023-05-01T00:14:04.706Z,94175.91
2023-05-01T00:16:31.474Z,94179.81
2023-05-01T00:18:58.172Z,94167.41
2023-05-01T00:21:25.033Z,94177.66
2023-05-01T00:23:52.027Z,94167.13
2023-05-01T00:26:19.041Z,94165.44
2023-05-01T00:28:48.361Z,94168.91
2023-05-01T00:31:15.526Z,94164.31
2023-05-01T00:33:42.341Z,94158.66
2023-05-01T00:36:10.193Z,94159.44
2023-05-01T00:38:36.822Z,94154.41
2023-05-01T00:41:03.537Z,94137.72
2023-05-01T00:43:30.527Z,94144.72
2023-05-01T00:45:57.249Z,94141.59
2023-05-01T00:48:24.248Z,94138.00
2023-05-01T00:50:51.076Z,94143.06
2023-05-01T00:53:18.969Z,94135.69
2023-05-01T00:55:46.454Z,94130.69
2023-05-01T00:58:17.017Z,94128.00
2023-05-01T01:00:44.384Z,94130.53
2023-05-01T01:03:11.739Z,94129.44
2023-05-01T01:05:44.983Z,94124.53
2023-05-01T01:08:16.960Z,94127.66
2023-05-01T01:10:54.569Z,94120.72
2023-05-01T01:13:32.500Z,94111.03
2023-05-01T01:16:19.257Z,94119.84
2023-05-01T01:18:56.496Z,94104.41
2023-05-01T01:21:38.190Z,94104.41
2023-05-01T01:24:08.112Z,94102.25
2023-05-01T01:27:02.915Z,94102.44
2023-05-01T01:29:48.144Z,94105.44
2023-05-01T01:32:32.599Z,94102.16
2023-05-01T01:35:06.826Z,94100.00
2023-05-01T01:37:55.611Z,94101.88
2023-05-01T01:40:48.150Z,94090.00
2023-05-01T01:43:17.917Z,94099.31
2023-05-01T01:45:48.023Z,94101.47
2023-05-01T01:48:22.089Z,94099.06
2023-05-01T01:50:49.221Z,94093.88
2023-05-01T01:53:18.493Z,94096.50
2023-05-01T01:55:47.518Z,94100.22
2023-05-01T01:58:17.148Z,94091.09
2023-05-01T02:00:45.705Z,94081.50
2023-05-01T02:03:24.298Z,94091.53
2023-05-01T02:05:53.496Z,94079.34
2023-05-01T02:08:21.976Z,94080.63
2023-05-01T02:10:50.949Z,94077.53
2023-05-01T02:13:20.467Z,94072.97
2023-05-01T02:15:49.070Z,94077.06
2023-05-01T02:18:16.764Z,94062.13
2023-05-01T02:20:44.698Z,94073.28
2023-05-01T02:23:13.104Z,94058.56
2023-05-01T02:25:40.380Z,94063.44
2023-05-01T02:28:12.760Z,94064.03
2023-05-01T02:30:39.830Z,94059.97
2023-05-01T02:33:09.508Z,94067.16
2023-05-01T02:35:41.004Z,94068.53
2023-05-01T02:38:08.290Z,94062.25
2023-05-01T02:40:37.002Z,94062.88
2023-05-01T02:43:06.618Z,94043.69
2023-05-01T02:45:37.767Z,94045.41
2023-05-01T02:48:07.393Z,94048.69
2023-05-01T02:50:34.800Z,94036.78
2023-05-01T02:53:01.831Z,94039.13
2023-05-01T02:55:45.650Z,94039.75
2023-05-01T02:58:19.248Z,94032.66
2023-05-01T03:00:48.367Z,94036.44
2023-05-01T03:03:16.308Z,94033.78
2023-05-01T03:05:43.023Z,94035.34
2023-05-01T03:08:10.610Z,94033.78
2023-05-01T03:10:42.696Z,94020.59
2023-05-01T03:13:13.252Z,94035.19
2023-05-01T03:15:40.226Z,94029.22
2023-05-01T03:18:07.931Z,94025.09
2023-05-01T03:20:34.767Z,94011.91
2023-05-01T03:23:02.560Z,94023.84
2023-05-01T03:25:29.846Z,94010.16
2023-05-01T03:27:56.629Z,94009.25
2023-05-01T03:30:23.494Z,94015.84
2023-05-01T03:32:51.742Z,94014.91
2023-05-01T03:35:24.430Z,94014.59
2023-05-01T03:37:51.117Z,94008.47
2023-05-01T03:40:37.733Z,94019.16
2023-05-01T03:43:39.790Z,94019.47
2023-05-01T03:46:13.893Z,94012.00
2023-05-01T03:48:41.943Z,94010.28
2023-05-01T03:51:08.949Z,94006.63
2023-05-01T03:53:36.978Z,94009.00
2023-05-01T03:56:06.209Z,94010.56
2023-05-01T03:58:33.083Z,94002.97
2023-05-01T04:01:01.052Z,94000.75
2023-05-01T04:03:28.786Z,94000.97
2023-05-01T04:05:56.512Z,93997.38
2023-05-01T04:08:23.509Z,93997.69
2023-05-01T04:10:50.211Z,93998.94
2023-05-01T04:13:16.893Z,94002.19
2023-05-01T04:15:47.082Z,93999.66
2023-05-01T04:18:14.366Z,93999.66
2023-05-01T04:20:41.143Z,93997.63
2023-05-01T04:23:09.660Z,94000.75
2023-05-01T04:25:37.138Z,94005.13
2023-05-01T04:28:13.741Z,94001.53
2023-05-01T04:30:40.539Z,94000.75
2023-05-01T04:33:11.554Z,94004.34
2023-05-01T04:35:40.077Z,94003.06
2023-05-01T04:38:08.197Z,94000.56
2023-05-01T04:40:35.736Z,93995.69
2023-05-01T04:43:02.392Z,94012.47
2023-05-01T04:45:29.345Z,94001.63
2023-05-01T04:47:56.438Z,93998.38
2023-05-01T04:50:23.269Z,94004.81
2023-05-01T04:52:51.983Z,94009.69
2023-05-01T04:55:18.814Z,94014.28
2023-05-01T04:58:14.608Z,94010.34
2023-05-01T05:00:42.833Z,94016.63
2023-05-01T05:03:14.559Z,94001.69
2023-05-01T05:05:41.330Z,94007.22
2023-05-01T05:08:09.412Z,94014.72
2023-05-01T05:10:39.440Z,94022.72
2023-05-01T05:13:19.431Z,94028.53
2023-05-01T05:15:50.942Z,94031.31
2023-05-01T05:18:20.325Z,94018.16
2023-05-01T05:20:47.313Z,94020.28
2023-05-01T05:23:13.989Z,94026.94
2023-05-01T05:25:40.674Z,94029.50
2023-05-01T05:28:07.729Z,94016.75
2023-05-01T05:30:34.565Z,94025.38
2023-05-01T05:33:08.811Z,94024.47
2023-05-01T05:35:36.557Z,94027.59
2023-05-01T05:38:03.938Z,94015.97
2023-05-01T05:40:34.457Z,94017.44
2023-05-01T05:43:01.508Z,94010.56
2023-05-01T05:45:29.800Z,94012.38
2023-05-01T05:47:57.571Z,94009.25
2023-05-01T05:50:26.386Z,94009.25
2023-05-01T05:52:53.085Z,94016.09
2023-05-01T05:55:19.953Z,94007.94
2023-05-01T05:57:59.314Z,94008.72
2023-05-01T06:00:26.130Z,94018.44
2023-05-01T06:02:54.731Z,94010.91
2023-05-01T06:05:22.649Z,94023.97
2023-05-01T06:07:49.458Z,94014.84
2023-05-01T06:10:17.140Z,94026.78
2023-05-01T06:12:53.901Z,94020.50
2023-05-01T06:15:27.327Z,94013.50
2023-05-01T06:17:54.703Z,94011.91
2023-05-01T06:20:21.464Z,94001.28
2023-05-01T06:22:50.650Z,94001.53
2023-05-01T06:25:31.983Z,94008.84
2023-05-01T06:27:59.587Z,94011.88
2023-05-01T06:30:26.267Z,94013.13
2023-05-01T06:32:53.026Z,93999.16
2023-05-01T06:35:21.227Z,94017.66
2023-05-01T06:37:47.989Z,94011.97
2023-05-01T06:40:15.001Z,94024.53
2023-05-01T06:42:42.160Z,94022.31
2023-05-01T06:45:09.152Z,94030.03
2023-05-01T06:47:35.949Z,94017.69
2023-05-01T06:50:05.504Z,94022.75
2023-05-01T06:52:33.743Z,94023.38
2023-05-01T06:55:00.450Z,94018.25
2023-05-01T06:57:27.283Z,94019.91
2023-05-01T06:59:54.435Z,94022.09
2023-05-01T07:02:21.410Z,94018.44
2023-05-01T07:04:48.143Z,94029.59
2023-05-01T07:07:14.850Z,94025.22
2023-05-01T07:09:41.717Z,94026.81
2023-05-01T07:12:08.789Z,94026.34
2023-05-01T07:14:36.098Z,94034.22
2023-05-01T07:17:03.599Z,94027.03
2023-05-01T07:19:30.545Z,94034.22
2023-05-01T07:21:57.310Z,94032.78
2023-05-01T07:24:24.210Z,94016.44
2023-05-01T07:26:51.782Z,94032.47
2023-05-01T07:29:18.718Z,94029.59
2023-05-01T07:31:46.405Z,94033.34
2023-05-01T07:34:13.736Z,94025.06
2023-05-01T07:36:41.626Z,94035.53
2023-05-01T07:39:08.353Z,94026.19
2023-05-01T07:41:35.013Z,94037.94
2023-05-01T07:44:02.143Z,94033.88
2023-05-01T07:46:29.685Z,94031.19
2023-05-01T07:48:56.391Z,94035.13
2023-05-01T07:51:23.943Z,94032.47
2023-05-01T07:53:50.826Z,94037.94
2023-05-01T07:56:17.607Z,94027.63
2023-05-01T07:58:44.554Z,94030.94
2023-05-01T08:01:11.312Z,94027.66
2023-05-01T08:03:41.385Z,94029.75
2023-05-01T08:06:08.261Z,94034.44
2023-05-01T08:08:34.981Z,94043.84
2023-05-01T08:11:01.692Z,94039.91
2023-05-01T08:13:28.356Z,94044.25
2023-05-01T08:15:55.355Z,94036.75
2023-05-01T08:18:22.106Z,94030.59
2023-05-01T08:20:49.514Z,94046.19
2023-05-01T08:23:17.402Z,94051.34
2023-05-01T08:25:46.927Z,94032.78
2023-05-01T08:28:14.980Z,94040.50
2023-05-01T08:30:41.773Z,94037.50
2023-05-01T08:33:08.498Z,94040.94
2023-05-01T08:35:35.289Z,94043.44
2023-05-01T08:38:02.315Z,94039.97
2023-05-01T08:40:32.436Z,94039.50
2023-05-01T08:43:01.411Z,94044.38
2023-05-01T08:45:30.838Z,94038.09
2023-05-01T08:47:59.019Z,94043.69
2023-05-01T08:50:27.495Z,94045.81
2023-05-01T08:52:55.475Z,94040.69
2023-05-01T08:55:22.699Z,94046.72
2023-05-01T08:57:50.753Z,94044.16
2023-05-01T09:00:21.522Z,94044.00
2023-05-01T09:02:49.889Z,94011.72
2023-05-01T09:05:17.724Z,94041.56
2023-05-01T09:07:46.636Z,94034.03
2023-05-01T09:10:15.435Z,94040.63
2023-05-01T09:12:46.157Z,94046.28
2023-05-01T09:15:13.432Z,94038.78
2023-05-01T09:17:40.481Z,94051.97
2023-05-01T09:20:07.913Z,94042.53
2023-05-01T09:22:35.480Z,94039.47
2023-05-01T09:25:03.176Z,94043.13
2023-05-01T09:27:37.508Z,94036.94
2023-05-01T09:30:06.784Z,94044.84
2023-05-01T09:32:33.684Z,94031.13
2023-05-01T09:35:11.965Z,94039.47
2023-05-01T09:37:39.254Z,94042.13
2023-05-01T09:40:06.536Z,94050.53
2023-05-01T09:42:34.778Z,94045.88
2023-05-01T09:45:03.806Z,94038.41
2023-05-01T09:47:30.889Z,94034.59
2023-05-01T09:49:59.745Z,94025.75
2023-05-01T09:52:30.483Z,94028.06
2023-05-01T09:55:14.540Z,94037.88
2023-05-01T09:57:42.999Z,94038.56
2023-05-01T10:00:15.140Z,94026.66
2023-05-01T10:02:42.417Z,94036.88
2023-05-01T10:05:10.848Z,94022.66
2023-05-01T10:07:38.526Z,94034.41
2023-05-01T10:10:17.619Z,94033.16
2023-05-01T10:12:44.314Z,94038.59
2023-05-01T10:15:23.909Z,94035.53
2023-05-01T10:17:52.405Z,94029.88
2023-05-01T10:20:19.826Z,94033.16
2023-05-01T10:22:46.761Z,94034.13
2023-05-01T10:25:14.087Z,94030.56
2023-05-01T10:27:41.918Z,94027.50
2023-05-01T10:30:10.076Z,94025.16
2023-05-01T10:32:38.222Z,94044.03
2023-05-01T10:35:38.227Z,94043.78
2023-05-01T10:38:07.746Z,94027.59
2023-05-01T10:40:40.913Z,94042.28
2023-05-01T10:43:14.067Z,94036.00
2023-05-01T10:45:40.747Z,94022.88
2023-05-01T10:48:07.641Z,94019.19
2023-05-01T10:50:34.938Z,94034.31
2023-05-01T10:53:14.474Z,94035.94
2023-05-01T10:55:46.234Z,94025.13
2023-05-01T10:58:14.286Z,94009.53
2023-05-01T11:00:41.448Z,94011.69
2023-05-01T11:03:23.553Z,94021.44
2023-05-01T11:06:04.404Z,94015.94
2023-05-01T11:08:32.834Z,94017.59
2023-05-01T11:11:21.666Z,94009.94
2023-05-01T11:14:02.551Z,94016.25
2023-05-01T11:16:39.097Z,94008.19
2023-05-01T11:19:07.919Z,94011.81
2023-05-01T11:21:36.704Z,94001.53
2023-05-01T11:24:04.334Z,94010.16
2023-05-01T11:26:32.665Z,93995.53
2023-05-01T11:29:01.256Z,93995.34
2023-05-01T11:31:29.203Z,93991.81
2023-05-01T11:33:57.229Z,93982.63
2023-05-01T11:36:24.005Z,93999.53
2023-05-01T11:38:54.105Z,93985.97
2023-05-01T11:41:21.598Z,93989.53
2023-05-01T11:44:00.579Z,93991.63
2023-05-01T11:46:32.061Z,93997.47
2023-05-01T11:49:01.674Z,94000.75
2023-05-01T11:51:30.173Z,94001.50
2023-05-01T11:54:04.517Z,93998.47
2023-05-01T11:56:33.351Z,93999.66
2023-05-01T11:59:12.205Z,93988.91
2023-05-01T12:01:44.557Z,93984.88
2023-05-01T12:04:12.506Z,93997.38
2023-05-01T12:06:47.132Z,93993.63
2023-05-01T12:09:19.126Z,93997.03
2023-05-01T12:11:48.202Z,93994.16
2023-05-01T12:14:15.943Z,93988.72
2023-05-01T12:16:43.234Z,93998.28
2023-05-01T12:19:12.166Z,93998.22
2023-05-01T12:21:38.943Z,93985.28
2023-05-01T12:24:17.901Z,93980.38
2023-05-01T12:26:46.217Z,93989.50
2023-05-01T12:29:13.012Z,93983.88
2023-05-01T12:31:47.907Z,93981.66
2023-05-01T12:34:14.706Z,93983.03
2023-05-01T12:36:41.495Z,93971.75
2023-05-01T12:39:11.671Z,93975.94
2023-05-01T12:41:42.718Z,93962.19
2023-05-01T12:44:19.583Z,93969.50
2023-05-01T12:46:54.010Z,93962.50
2023-05-01T12:49:21.613Z,93972.84
2023-05-01T12:51:49.720Z,93978.03
2023-05-01T12:54:30.920Z,93977.31
2023-05-01T12:57:15.089Z,93961.00
2023-05-01T12:59:43.996Z,93972.63
2023-05-01T13:02:17.201Z,93967.72
2023-05-01T13:04:45.104Z,93963.34
2023-05-01T13:07:16.668Z,93964.03
2023-05-01T13:09:58.451Z,93968.22
2023-05-01T13:12:26.399Z,93968.69
2023-05-01T13:14:54.041Z,93968.38
2023-05-01T13:17:26.146Z,93968.50
2023-05-01T13:20:01.092Z,93968.28
2023-05-01T13:22:36.403Z,93958.63
2023-05-01T13:25:04.922Z,93961.44
2023-05-01T13:27:31.842Z,93970.78
2023-05-01T13:29:59.879Z,93965.59
2023-05-01T13:32:27.344Z,93956.97
2023-05-01T13:34:54.382Z,93953.47
2023-05-01T13:37:23.910Z,93960.38
2023-05-01T13:39:50.783Z,93952.84
2023-05-01T13:42:27.368Z,93967.44
2023-05-01T13:44:58.155Z,93970.22
2023-05-01T13:47:29.070Z,93968.31
2023-05-01T13:49:56.095Z,93952.00
2023-05-01T13:52:23.253Z,93955.53
2023-05-01T13:54:56.621Z,93964.13
2023-05-01T13:57:23.409Z,93952.56
2023-05-01T13:59:50.020Z,93953.00
2023-05-01T14:02:20.854Z,93962.28
2023-05-01T14:04:49.285Z,93971.13
2023-05-01T14:07:19.165Z,93961.34
2023-05-01T14:09:53.331Z,93946.25
2023-05-01T14:12:22.333Z,93953.41
2023-05-01T14:14:49.339Z,93956.16
2023-05-01T14:17:16.223Z,93954.63
2023-05-01T14:19:43.044Z,93963.91
2023-05-01T14:22:10.760Z,93952.78
2023-05-01T14:24:41.274Z,93957.06
2023-05-01T14:27:10.163Z,93969.47
2023-05-01T14:29:43.743Z,93982.97
2023-05-01T14:32:10.943Z,93976.72
2023-05-01T14:34:41.040Z,93976.78
2023-05-01T14:37:08.919Z,93979.03
2023-05-01T14:39:36.011Z,93983.59
2023-05-01T14:42:04.446Z,93970.41
2023-05-01T14:44:31.172Z,93978.47
2023-05-01T14:46:58.929Z,93983.38
2023-05-01T14:49:26.079Z,93982.78
2023-05-01T14:51:53.950Z,93985.94
2023-05-01T14:54:21.312Z,93979.56
2023-05-01T14:56:49.034Z,93974.97
2023-05-01T14:59:16.390Z,93977.59
2023-05-01T15:01:44.094Z,93975.31
2023-05-01T15:04:12.625Z,93980.78
2023-05-01T15:06:39.576Z,93981.56
2023-05-01T15:09:06.417Z,93983.75
2023-05-01T15:11:33.373Z,93988.63
2023-05-01T15:14:00.060Z,93984.28
2023-05-01T15:16:28.489Z,93984.63
2023-05-01T15:18:55.352Z,93979.53
2023-05-01T15:21:21.987Z,93979.59
2023-05-01T15:23:48.617Z,93981.88
2023-05-01T15:26:15.409Z,93984.38
2023-05-01T15:28:42.161Z,93975.41
2023-05-01T15:31:08.864Z,93970.94
2023-05-01T15:33:35.640Z,93968.38
2023-05-01T15:36:02.346Z,93976.16
2023-05-01T15:38:29.160Z,93976.03
2023-05-01T15:40:56.742Z,93973.13
2023-05-01T15:43:23.472Z,93963.69
2023-05-01T15:45:52.218Z,93976.84
2023-05-01T15:48:19.147Z,93971.56
2023-05-01T15:50:48.676Z,93978.34
2023-05-01T15:53:17.227Z,93980.50
2023-05-01T15:55:44.067Z,93980.72
2023-05-01T15:58:11.111Z,93983.63
2023-05-01T16:00:39.709Z,93989.16
2023-05-01T16:03:08.413Z,93996.41
2023-05-01T16:05:37.202Z,93993.13
2023-05-01T16:08:05.826Z,93992.19
2023-05-01T16:10:37.145Z,93998.22
2023-05-01T16:13:06.413Z,94012.38
2023-05-01T16:15:34.004Z,94010.88
2023-05-01T16:18:04.048Z,94009.16
2023-05-01T16:20:38.932Z,94012.06
2023-05-01T16:23:05.569Z,94012.31
2023-05-01T16:25:32.283Z,94005.50
2023-05-01T16:27:58.985Z,94020.38
2023-05-01T16:30:27.855Z,94021.28
2023-05-01T16:32:54.759Z,94021.94
2023-05-01T16:35:27.638Z,94039.69
2023-05-01T16:37:55.241Z,94029.59
2023-05-01T16:40:22.372Z,94036.97
2023-05-01T16:42:53.600Z,94032.41
2023-05-01T16:45:21.257Z,94019.16
2023-05-01T16:47:48.103Z,94036.31
2023-05-01T16:50:16.484Z,94022.69
2023-05-01T16:52:43.248Z,94034.75
2023-05-01T16:55:10.213Z,94023.13
2023-05-01T16:57:36.956Z,94025.00
2023-05-01T17:00:05.289Z,94025.69
2023-05-01T17:02:33.348Z,94021.75
2023-05-01T17:05:00.361Z,94028.72
2023-05-01T17:07:27.066Z,94028.72
2023-05-01T17:09:53.770Z,94032.72
2023-05-01T17:12:20.481Z,94037.34
2023-05-01T17:14:47.426Z,94039.47
2023-05-01T17:17:15.160Z,94035.34
2023-05-01T17:19:41.920Z,94021.81
2023-05-01T17:22:08.558Z,94038.47
2023-05-01T17:24:36.397Z,94041.59
2023-05-01T17:27:05.941Z,94036.34
2023-05-01T17:29:32.734Z,94042.16
2023-05-01T17:31:59.497Z,94043.97
2023-05-01T17:34:26.312Z,94051.91
2023-05-01T17:36:53.032Z,94048.63
2023-05-01T17:39:21.847Z,94050.38
2023-05-01T17:41:49.829Z,94064.88
2023-05-01T17:44:16.545Z,94054.72
2023-05-01T17:46:43.160Z,94063.84
2023-05-01T17:49:09.877Z,94058.28
2023-05-01T17:51:37.310Z,94063.41
2023-05-01T17:54:04.030Z,94063.06
2023-05-01T17:56:30.686Z,94070.03
2023-05-01T17:58:57.352Z,94075.41
2023-05-01T18:01:24.260Z,94074.09
2023-05-01T18:03:51.329Z,94078.94
2023-05-01T18:06:18.246Z,94083.19
2023-05-01T18:08:44.958Z,94080.94
2023-05-01T18:11:11.629Z,94080.50
2023-05-01T18:13:39.776Z,94081.09
2023-05-01T18:16:06.666Z,94086.69
2023-05-01T18:18:33.329Z,94097.00
2023-05-01T18:21:00.019Z,94102.81
2023-05-01T18:23:26.711Z,94107.41
2023-05-01T18:25:54.935Z,94106.97
2023-05-01T18:28:22.114Z,94115.41
2023-05-01T18:30:48.934Z,94122.69
2023-05-01T18:33:15.724Z,94124.59
2023-05-01T18:35:42.729Z,94121.03
2023-05-01T18:38:10.482Z,94118.78
2023-05-01T18:40:37.941Z,94127.72
2023-05-01T18:43:05.115Z,94118.94
2023-05-01T18:45:31.861Z,94124.84
2023-05-01T18:48:00.701Z,94124.31
2023-05-01T18:50:27.669Z,94128.16
2023-05-01T18:52:54.579Z,94140.47
2023-05-01T18:55:21.229Z,94142.28
2023-05-01T18:57:48.534Z,94148.34
2023-05-01T19:00:17.598Z,94155.97
2023-05-01T19:02:51.328Z,94155.41
2023-05-01T19:05:18.504Z,94151.06
2023-05-01T19:07:45.365Z,94142.94
2023-05-01T19:10:12.153Z,94148.31
2023-05-01T19:12:39.491Z,94141.25
2023-05-01T19:15:06.682Z,94147.19
2023-05-01T19:17:34.037Z,94146.53
2023-05-01T19:20:01.143Z,94141.63
2023-05-01T19:22:28.044Z,94159.06
2023-05-01T19:24:54.678Z,94146.09
2023-05-01T19:27:21.513Z,94158.44
2023-05-01T19:29:48.250Z,94163.34
2023-05-01T19:32:15.057Z,94166.28
2023-05-01T19:34:41.828Z,94169.53
2023-05-01T19:37:08.508Z,94167.97
2023-05-01T19:39:35.594Z,94174.13
2023-05-01T19:42:03.305Z,94170.81
2023-05-01T19:44:30.015Z,94179.19
2023-05-01T19:46:56.721Z,94186.69
2023-05-01T19:49:25.020Z,94190.19
2023-05-01T19:51:53.501Z,94196.00
2023-05-01T19:54:22.347Z,94182.91
2023-05-01T19:56:51.668Z,94190.19
2023-05-01T19:59:19.064Z,94188.06
2023-05-01T20:01:45.977Z,94188.31
2023-05-01T20:04:12.902Z,94194.78
2023-05-01T20:06:39.659Z,94197.47
2023-05-01T20:09:06.887Z,94201.63
2023-05-01T20:11:33.681Z,94208.75
2023-05-01T20:14:00.944Z,94203.16
2023-05-01T20:16:28.092Z,94206.53
2023-05-01T20:18:54.801Z,94221.63
2023-05-01T20:21:21.439Z,94218.38
2023-05-01T20:23:50.375Z,94214.78
2023-05-01T20:26:19.025Z,94228.75
2023-05-01T20:28:46.156Z,94202.38
2023-05-01T20:31:13.682Z,94224.31
2023-05-01T20:33:40.363Z,94221.84
2023-05-01T20:36:07.396Z,94225.19
2023-05-01T20:38:40.565Z,94241.75
2023-05-01T20:41:07.242Z,94232.69
2023-05-01T20:43:33.922Z,94229.53
2023-05-01T20:46:00.610Z,94241.41
2023-05-01T20:48:27.636Z,94227.41
2023-05-01T20:50:54.324Z,94230.88
2023-05-01T20:53:21.245Z,94240.16
2023-05-01T20:55:49.759Z,94240.59
2023-05-01T20:58:16.687Z,94249.97
2023-05-01T21:00:43.404Z,94244.41
2023-05-01T21:03:10.479Z,94251.78
2023-05-01T21:05:37.270Z,94245.84
2023-05-01T21:08:03.940Z,94247.88
2023-05-01T21:10:31.594Z,94247.88
2023-05-01T21:12:58.694Z,94256.03
2023-05-01T21:15:26.994Z,94266.09
2023-05-01T21:17:53.803Z,94264.41
2023-05-01T21:20:30.520Z,94264.09
2023-05-01T21:22:57.163Z,94265.63
2023-05-01T21:25:27.061Z,94251.66
2023-05-01T21:27:54.400Z,94257.16
2023-05-01T21:30:33.547Z,94250.53
2023-05-01T21:33:01.870Z,94251.31
2023-05-01T21:35:29.864Z,94253.75
2023-05-01T21:37:57.597Z,94259.59
2023-05-01T21:40:25.007Z,94257.09
2023-05-01T21:42:54.298Z,94254.28
2023-05-01T21:45:21.072Z,94250.38
2023-05-01T21:47:53.149Z,94256.41
2023-05-01T21:50:20.422Z,94249.03
2023-05-01T21:52:49.300Z,94253.94
2023-05-01T21:55:18.620Z,94253.03
2023-05-01T21:57:45.408Z,94256.34
2023-05-01T22:00:12.552Z,94255.44
2023-05-01T22:02:44.527Z,94257.47
2023-05-01T22:05:12.958Z,94265.84
2023-05-01T22:07:41.106Z,94264.94
2023-05-01T22:10:14.638Z,94267.00
2023-05-01T22:12:41.826Z,94256.22
2023-05-01T22:15:10.141Z,94250.25
2023-05-01T22:17:38.058Z,94256.75
2023-05-01T22:20:07.251Z,94230.41
2023-05-01T22:22:34.769Z,94267.22
2023-05-01T22:25:01.673Z,94268.66
2023-05-01T22:27:28.325Z,94269.31
2023-05-01T22:29:55.019Z,94274.84
2023-05-01T22:32:21.934Z,94272.06
2023-05-01T22:34:48.749Z,94274.59
2023-05-01T22:37:15.849Z,94267.66
2023-05-01T22:39:43.001Z,94279.16
2023-05-01T22:42:09.804Z,94278.38
2023-05-01T22:44:36.684Z,94282.63
2023-05-01T22:47:03.427Z,94272.75
2023-05-01T22:49:32.827Z,94284.41
2023-05-01T22:51:59.841Z,94290.06
2023-05-01T22:54:26.591Z,94280.97
2023-05-01T22:56:53.423Z,94280.03
2023-05-01T22:59:21.809Z,94282.94
2023-05-01T23:01:48.747Z,94283.56
2023-05-01T23:04:16.151Z,94290.03
2023-05-01T23:06:44.366Z,94276.53
2023-05-01T23:09:11.899Z,94292.59
2023-05-01T23:11:40.352Z,94299.75
2023-05-01T23:14:07.428Z,94292.19
2023-05-01T23:16:41.681Z,94292.66
2023-05-01T23:19:20.608Z,94293.78
2023-05-01T23:21:48.020Z,94288.28
2023-05-01T23:24:20.037Z,94291.25
2023-05-01T23:26:47.597Z,94295.66
2023-05-01T23:29:16.192Z,94293.47
2023-05-01T23:31:47.217Z,94298.56
2023-05-01T23:34:17.710Z,94301.09
2023-05-01T23:36:47.711Z,94288.81
2023-05-01T23:39:16.395Z,94290.38
2023-05-01T23:41:43.550Z,94288.66
2023-05-01T23:44:11.621Z,94292.09
2023-05-01T23:46:38.710Z,94285.97
2023-05-01T23:49:05.638Z,94281.72
2023-05-01T23:51:32.813Z,94285.97
2023-05-01T23:54:00.324Z,94291.50
2023-05-01T23:56:27.222Z,94290.69
2023-05-01T23:58:54.027Z,94287.88
